KWLD/WLD METAR and TAF weather

Enter ICAO airport designator
Station Type Date Time Source
KWLD METAR 2019/04/23 03:54 UTC NOAA

KWLD 230354Z AUTO 02008KT 10SM CLR 16/11 A3006 RMK AO2 SLP175 T01560111


Station Type Date Time Source
KWLD Decoded METAR 2019/04/23 03:54 UTC NOAA

STROTHER FIELD, KS, United States (KWLD) 37-10N 97-02W 350M
Apr 22, 2019 - 11:54 PM EDT / 2019.04.23 0354 UTC
Wind: from the NNE (020 degrees) at 9 MPH (8 KT):0
Visibility: 10 mile(s):0
Sky conditions: clear
Temperature: 60.1 F (15.6 C)
Dew Point: 52.0 F (11.1 C)
Relative Humidity: 74%
Pressure (altimeter): 30.06 in. Hg (1017 hPa)
ob: KWLD 230354Z AUTO 02008KT 10SM CLR 16/11 A3006 RMK AO2 SLP175 T01560111
cycle: 4

Station Type Date Time Source
KWLD TAF UTC NOAA

Error!

Example: see airport list